الصفحة الرئيسية
METAR-TAF:

METAR-TAF

مطار :

مطار الرباط سلا

الرباط, المغرب

دائرة عرض: 34-03N, خط طول: 006-46W, ارتفاع: 84 متر

مراقبة الطقس الحالي

تاريخ ووقت الإصدار 27 دقيقة قبل الساعة 11:00UTC
ريح 8 عقدة من الجنوب الغربي
درجة الحرارة 17°درجة مئوية
الرطوبة 82%
ضغط 1015 hPa
الرؤية: 6000 متر
غيوم قليلة على ارتفاع 1000 قدم
غيوم متفرقة على ارتفاع 1600 قدم
ملبد بالغيوم على ارتفاع 2600 قدم

METAR: GMME 241100Z 23008KT 6000 FEW010 SCT016 OVC026 17/14 Q1015 TEMPO 4000 RA

زمن: 11:27 (11:27 UTC)

توقعات

تاريخ ووقت الإصدار 6ساعات و 27 دقيقة قبل الساعة 05:00UTC
التوقعات صالحة من24 الساعة 06 UTC إلى 25 الساعة 12 UTC
ريح 2 عقدةمن اتجاهات متغيرة
الرؤية: 8000 متر
غيوم مفككة على ارتفاع 2300 قدم
نظرية الاحتمالات 30% :
مؤقت
من 24 الساعة 06 UTC إلى 24 الساعة 12 UTC
ريح 8 عقدة من الجنوب الغربي
غيوم مفككة على ارتفاع 1500 قدم
ملبد بالغيوم على ارتفاع 2300 قدم
مطر

TAF: GMME 240500Z 2406/2512 VRB02KT 8000 BKN023 PROB30 TEMPO 2406/2412 22008KT RA BKN015 OVC023

أرصاد الطقس والتوقعات من أكثر من 4000 مطار (تقارير الطقس للمطار METAR والتنبؤ بالطقس بالمطارTAF).

المحطات المتاحة هي النقط الصفراء والحمراء على الخريطة.

حرك المؤشر فوق النقطة لمعرفة اسم المحطة.

ثم انقر لمعرفة أرصاد وتوقعات الطقس.

لتغيير الخارطة: اضغط على الأزرار الخضراء مع رمز الصليب الأسود للتكبير. على الزر الأخضر مع شرطة للتصغير، أو على الأسهم الخضراء للخرائط المجاورة.


METAR-TAF: